John Fox — WDC6548 — position and weather

sailwx.info

Track history (hours):
 
Tides and Currents Weather Stations Pressure Air Temp Water Temp Dewpoint Dewpoint Depression Visibility Wind Speed Wind Dir Waves Ship Positions

John Fox

Owner: American Commercial Lines LLC, Jeffersonville, IN. More information available from US FCC via Universal Licensing System and Coast Guard Vessel Documentation Center.

Last reported at 2017-Dec-12 14:25 UTC. Time now 2017-Dec-18 07:03 UTC.
Position N 27°16' W 097°25'.

Length 24 m; draft 2.9 m.

Type: Tug. MMSI: 367057760.

Date/timePositionNaut miles runAvg speedWind from/ knotsBaromVisibWave heightAir tempDewpointWater temp
2017-Dec-12 14:25N 27°16' W 097°25'3 5.0
2017-Dec-12 13:55N 27°19' W 097°24'2 4.4
2017-Dec-12 13:30N 27°20' W 097°23'2 4.7
2017-Dec-12 13:01N 27°23' W 097°22'2 4.5
2017-Dec-12 12:31N 27°25' W 097°21'2 4.5
2017-Dec-12 11:59N 27°27' W 097°20'2 4.9
2017-Dec-12 11:30N 27°29' W 097°19'2 4.6
2017-Dec-12 10:59N 27°31' W 097°18'2 4.4
2017-Dec-12 10:29N 27°33' W 097°17'2 4.4
2017-Dec-12 09:59N 27°35' W 097°16'6 4.2
2017-Dec-12 08:36N 27°40' W 097°14'0 3.2
2017-Dec-12 08:30N 27°41' W 097°14'2 3.2
2017-Dec-12 07:59N 27°42' W 097°13'3 5.2
2017-Dec-12 07:30N 27°45' W 097°14'3 5.5
2017-Dec-12 06:59N 27°48' W 097°15'2 4.7
2017-Dec-12 06:30N 27°49' W 097°13'3 6.0
2017-Dec-12 06:00N 27°50' W 097°09'4 7.0
2017-Dec-12 05:29N 27°50' W 097°05'3 5.3
2017-Dec-12 05:00N 27°52' W 097°03'2 4.7
2017-Dec-12 04:29N 27°54' W 097°03'3 4.9
2017-Dec-12 03:59N 27°57' W 097°04'2 4.9
2017-Dec-12 03:30N 27°59' W 097°03'  
2017-Dec-08 23:05N 29°22' W 094°55'0 0.0
2017-Dec-08 22:58N 29°22' W 094°55'7 0.4
2017-Dec-08 05:19N 29°28' W 094°51'1 3.2
2017-Dec-08 04:58N 29°30' W 094°52'2 3.8
2017-Dec-08 04:30N 29°31' W 094°53'2 3.2
2017-Dec-08 04:00N 29°32' W 094°54'2 3.6
2017-Dec-08 03:30N 29°34' W 094°55'2 4.2
2017-Dec-08 03:00N 29°36' W 094°57'2 4.3
2017-Dec-08 02:30N 29°37' W 094°58'2 4.2
2017-Dec-08 02:00N 29°39' W 094°58'2 4.5
2017-Dec-08 01:30N 29°42' W 094°59'3 4.3
2017-Dec-08 00:54N 29°44' W 095°01'2 4.5
2017-Dec-08 00:30N 29°44' W 095°03'2 4.5
2017-Dec-07 23:58N 29°46' W 095°05'0 0.4
2017-Dec-07 23:30N 29°46' W 095°05'0 0.2
2017-Dec-07 22:59N 29°46' W 095°05'0 0.2
2017-Dec-07 22:26N 29°46' W 095°05'0 0.0
2017-Dec-07 13:22N 29°46' W 095°05'0 0.0
2017-Dec-07 12:52N 29°46' W 095°05'0 0.0
2017-Dec-07 12:30N 29°46' W 095°05'0 0.0
2017-Dec-07 11:51N 29°46' W 095°05'0 0.0
2017-Dec-07 11:31N 29°46' W 095°05'0 0.0
2017-Dec-07 11:00N 29°46' W 095°05'0 0.0
2017-Dec-07 10:30N 29°46' W 095°05'0 0.0
2017-Dec-07 09:59N 29°46' W 095°05'0 0.0
2017-Dec-07 09:30N 29°46' W 095°05'0 0.0
2017-Dec-07 09:01N 29°46' W 095°05'0 0.0
2017-Dec-07 08:30N 29°46' W 095°05'0 0.0
2017-Dec-07 08:00N 29°46' W 095°05'0 0.0
2017-Dec-07 07:28N 29°46' W 095°05'0 0.0
2017-Dec-07 07:00N 29°46' W 095°05'0 0.0
2017-Dec-07 06:30N 29°46' W 095°05'0 0.0
2017-Dec-07 06:00N 29°46' W 095°05'0 0.0
2017-Dec-07 05:31N 29°46' W 095°05'0 0.0
2017-Dec-07 04:59N 29°46' W 095°05'0 0.0
2017-Dec-07 04:29N 29°46' W 095°05'0 0.0
2017-Dec-07 03:59N 29°46' W 095°05'0 0.0
2017-Dec-07 03:30N 29°46' W 095°05'0 0.0
2017-Dec-07 03:00N 29°46' W 095°05'0 0.0
2017-Dec-07 02:29N 29°46' W 095°05'0 0.0
2017-Dec-07 01:55N 29°46' W 095°05'0 0.0
2017-Dec-07 01:30N 29°46' W 095°05'0 0.0
2017-Dec-07 01:00N 29°46' W 095°05'1 1.3
2017-Dec-07 00:23N 29°46' W 095°06'1 1.0
2017-Dec-06 23:33N 29°46' W 095°05'0 0.0
2017-Dec-06 23:28N 29°46' W 095°05'0 0.0
2017-Dec-06 22:48N 29°46' W 095°05'0 0.0
2017-Dec-06 21:24N 29°46' W 095°05'  
Track history (hours):
 
Tides and Currents Weather Stations Pressure Air Temp Water Temp Dewpoint Dewpoint Depression Visibility Wind Speed Wind Dir Waves Ship Positions

John Fox

Owner: American Commercial Lines LLC, Jeffersonville, IN. More information available from US FCC via Universal Licensing System and Coast Guard Vessel Documentation Center.

Last reported at 2017-Dec-12 14:25 UTC. Time now 2017-Dec-18 07:03 UTC.
Position N 27°16' W 097°25'.

Length 24 m; draft 2.9 m.

Type: Tug. MMSI: 367057760.

Date/timePositionNaut miles runAvg speedWind from/ knotsBaromVisibWave heightAir tempDewpointWater temp
2017-Dec-12 14:25N 27°16' W 097°25'3 5.0
2017-Dec-12 13:55N 27°19' W 097°24'2 4.4
2017-Dec-12 13:30N 27°20' W 097°23'2 4.7
2017-Dec-12 13:01N 27°23' W 097°22'2 4.5
2017-Dec-12 12:31N 27°25' W 097°21'2 4.5
2017-Dec-12 11:59N 27°27' W 097°20'2 4.9
2017-Dec-12 11:30N 27°29' W 097°19'2 4.6
2017-Dec-12 10:59N 27°31' W 097°18'2 4.4
2017-Dec-12 10:29N 27°33' W 097°17'2 4.4
2017-Dec-12 09:59N 27°35' W 097°16'6 4.2
2017-Dec-12 08:36N 27°40' W 097°14'0 3.2
2017-Dec-12 08:30N 27°41' W 097°14'2 3.2
2017-Dec-12 07:59N 27°42' W 097°13'3 5.2
2017-Dec-12 07:30N 27°45' W 097°14'3 5.5
2017-Dec-12 06:59N 27°48' W 097°15'2 4.7
2017-Dec-12 06:30N 27°49' W 097°13'3 6.0
2017-Dec-12 06:00N 27°50' W 097°09'4 7.0
2017-Dec-12 05:29N 27°50' W 097°05'3 5.3
2017-Dec-12 05:00N 27°52' W 097°03'2 4.7
2017-Dec-12 04:29N 27°54' W 097°03'3 4.9
2017-Dec-12 03:59N 27°57' W 097°04'2 4.9
2017-Dec-12 03:30N 27°59' W 097°03'  
2017-Dec-08 23:05N 29°22' W 094°55'0 0.0
2017-Dec-08 22:58N 29°22' W 094°55'7 0.4
2017-Dec-08 05:19N 29°28' W 094°51'1 3.2
2017-Dec-08 04:58N 29°30' W 094°52'2 3.8
2017-Dec-08 04:30N 29°31' W 094°53'2 3.2
2017-Dec-08 04:00N 29°32' W 094°54'2 3.6
2017-Dec-08 03:30N 29°34' W 094°55'2 4.2
2017-Dec-08 03:00N 29°36' W 094°57'2 4.3
2017-Dec-08 02:30N 29°37' W 094°58'2 4.2
2017-Dec-08 02:00N 29°39' W 094°58'2 4.5
2017-Dec-08 01:30N 29°42' W 094°59'3 4.3
2017-Dec-08 00:54N 29°44' W 095°01'2 4.5
2017-Dec-08 00:30N 29°44' W 095°03'2 4.5
2017-Dec-07 23:58N 29°46' W 095°05'0 0.4
2017-Dec-07 23:30N 29°46' W 095°05'0 0.2
2017-Dec-07 22:59N 29°46' W 095°05'0 0.2
2017-Dec-07 22:26N 29°46' W 095°05'0 0.0
2017-Dec-07 13:22N 29°46' W 095°05'0 0.0
2017-Dec-07 12:52N 29°46' W 095°05'0 0.0
2017-Dec-07 12:30N 29°46' W 095°05'0 0.0
2017-Dec-07 11:51N 29°46' W 095°05'0 0.0
2017-Dec-07 11:31N 29°46' W 095°05'0 0.0
2017-Dec-07 11:00N 29°46' W 095°05'0 0.0
2017-Dec-07 10:30N 29°46' W 095°05'0 0.0
2017-Dec-07 09:59N 29°46' W 095°05'0 0.0
2017-Dec-07 09:30N 29°46' W 095°05'0 0.0
2017-Dec-07 09:01N 29°46' W 095°05'0 0.0
2017-Dec-07 08:30N 29°46' W 095°05'0 0.0
2017-Dec-07 08:00N 29°46' W 095°05'0 0.0
2017-Dec-07 07:28N 29°46' W 095°05'0 0.0
2017-Dec-07 07:00N 29°46' W 095°05'0 0.0
2017-Dec-07 06:30N 29°46' W 095°05'0 0.0
2017-Dec-07 06:00N 29°46' W 095°05'0 0.0
2017-Dec-07 05:31N 29°46' W 095°05'0 0.0
2017-Dec-07 04:59N 29°46' W 095°05'0 0.0
2017-Dec-07 04:29N 29°46' W 095°05'0 0.0
2017-Dec-07 03:59N 29°46' W 095°05'0 0.0
2017-Dec-07 03:30N 29°46' W 095°05'0 0.0
2017-Dec-07 03:00N 29°46' W 095°05'0 0.0
2017-Dec-07 02:29N 29°46' W 095°05'0 0.0
2017-Dec-07 01:55N 29°46' W 095°05'0 0.0
2017-Dec-07 01:30N 29°46' W 095°05'0 0.0
2017-Dec-07 01:00N 29°46' W 095°05'1 1.3
2017-Dec-07 00:23N 29°46' W 095°06'1 1.0
2017-Dec-06 23:33N 29°46' W 095°05'0 0.0
2017-Dec-06 23:28N 29°46' W 095°05'0 0.0
2017-Dec-06 22:48N 29°46' W 095°05'0 0.0
2017-Dec-06 21:24N 29°46' W 095°05'  

Dump ship's entire track history